createdAt,value
2018-05-04T00:00:34.750Z,3.00
2018-05-04T00:03:39.060Z,2.63
2018-05-04T00:06:43.940Z,2.63
2018-05-04T00:09:47.290Z,2.53
2018-05-04T00:12:50.724Z,2.73
2018-05-04T00:15:54.102Z,2.77
2018-05-04T00:18:57.326Z,2.40
2018-05-04T00:22:00.734Z,2.63
2018-05-04T00:25:03.915Z,3.23
2018-05-04T00:28:07.223Z,2.50
2018-05-04T00:31:10.483Z,2.70
2018-05-04T00:34:14.804Z,3.00
2018-05-04T00:37:18.051Z,2.67
2018-05-04T00:40:21.432Z,2.37
2018-05-04T00:43:24.793Z,3.00
2018-05-04T00:46:28.088Z,2.67
2018-05-04T00:49:31.384Z,2.57
2018-05-04T00:52:34.728Z,2.10
2018-05-04T00:55:38.089Z,2.63
2018-05-04T00:58:41.434Z,2.67
2018-05-04T01:01:45.600Z,2.60
2018-05-04T01:04:48.909Z,2.53
2018-05-04T01:07:52.226Z,2.50
2018-05-04T01:10:55.380Z,2.37
2018-05-04T01:13:58.801Z,2.40
2018-05-04T01:17:02.105Z,2.50
2018-05-04T01:20:05.464Z,2.47
2018-05-04T01:23:08.713Z,2.30
2018-05-04T01:26:11.987Z,2.20
2018-05-04T01:29:15.387Z,2.50
2018-05-04T01:32:18.685Z,2.30
2018-05-04T01:35:21.980Z,2.33
2018-05-04T01:38:25.379Z,2.80
2018-05-04T01:41:28.679Z,2.70
2018-05-04T01:44:31.922Z,2.60
2018-05-04T01:47:35.271Z,2.60
2018-05-04T01:50:38.708Z,2.37
2018-05-04T01:53:42.551Z,2.20
2018-05-04T01:56:45.828Z,2.60
2018-05-04T01:59:49.116Z,2.17
2018-05-04T02:02:52.428Z,2.40
2018-05-04T02:05:55.763Z,2.40
2018-05-04T02:08:59.093Z,2.23
2018-05-04T02:12:02.293Z,2.20
2018-05-04T02:15:05.575Z,1.97
2018-05-04T02:18:08.950Z,2.40
2018-05-04T02:21:12.740Z,2.30
2018-05-04T02:24:15.987Z,2.23
2018-05-04T02:27:19.296Z,2.57
2018-05-04T02:30:22.659Z,2.23
2018-05-04T02:33:25.960Z,2.30
2018-05-04T02:36:29.346Z,2.60
2018-05-04T02:39:32.656Z,2.40
2018-05-04T02:42:35.956Z,2.40
2018-05-04T02:45:39.310Z,2.53
2018-05-04T02:48:43.671Z,2.43
2018-05-04T02:51:46.944Z,2.50
2018-05-04T02:54:50.195Z,2.53
2018-05-04T02:57:53.504Z,2.43
2018-05-04T03:00:56.756Z,2.93
2018-05-04T03:04:00.180Z,2.53
2018-05-04T03:07:03.564Z,2.17
2018-05-04T03:10:06.977Z,2.37
2018-05-04T03:13:10.309Z,2.33
2018-05-04T03:16:14.286Z,2.60
2018-05-04T03:19:17.511Z,2.40
2018-05-04T03:22:20.866Z,2.40
2018-05-04T03:25:24.164Z,2.73
2018-05-04T03:28:27.477Z,2.50
2018-05-04T03:31:30.860Z,2.60
2018-05-04T03:34:34.157Z,2.37
2018-05-04T03:37:37.399Z,2.53
2018-05-04T03:40:40.795Z,2.20
2018-05-04T03:43:45.227Z,2.20
2018-05-04T03:46:48.423Z,2.37
2018-05-04T03:49:51.771Z,2.50
2018-05-04T03:52:55.118Z,2.50
2018-05-04T03:55:58.419Z,2.60
2018-05-04T04:00:11.575Z,2.60
2018-05-04T04:04:21.971Z,2.77
2018-05-04T04:07:25.372Z,2.57
2018-05-04T04:10:28.672Z,2.90
2018-05-04T04:13:31.961Z,2.90
2018-05-04T04:16:35.368Z,2.97
2018-05-04T04:19:38.770Z,2.40
2018-05-04T04:22:42.647Z,2.80
2018-05-04T04:25:45.975Z,2.87
2018-05-04T04:28:49.318Z,2.90
2018-05-04T04:31:52.676Z,2.83
2018-05-04T04:34:56.065Z,2.90
2018-05-04T04:37:59.383Z,2.60
2018-05-04T04:41:02.660Z,2.60
2018-05-04T04:44:06.059Z,2.87
2018-05-04T04:47:09.306Z,2.40
2018-05-04T04:50:13.954Z,2.70
2018-05-04T04:53:17.237Z,2.50
2018-05-04T04:56:20.587Z,2.60
2018-05-04T04:59:23.759Z,2.90
2018-05-04T05:02:44.256Z,3.23
2018-05-04T05:05:47.535Z,2.63
2018-05-04T05:08:50.870Z,2.73
2018-05-04T05:11:54.247Z,3.30
2018-05-04T05:14:57.712Z,2.77
2018-05-04T05:18:01.002Z,2.90
2018-05-04T05:21:04.529Z,2.73
2018-05-04T05:24:07.843Z,2.80
2018-05-04T05:27:12.057Z,3.13
2018-05-04T05:30:15.395Z,3.03
2018-05-04T05:33:18.791Z,2.67
2018-05-04T05:36:22.109Z,2.80
2018-05-04T05:39:25.307Z,2.90
2018-05-04T05:42:28.668Z,2.90
2018-05-04T05:45:31.889Z,2.73
2018-05-04T05:48:35.247Z,3.03
2018-05-04T05:51:38.600Z,3.13
2018-05-04T05:54:41.917Z,2.80
2018-05-04T05:57:45.201Z,2.90
2018-05-04T06:00:49.889Z,2.60
2018-05-04T06:03:53.231Z,2.63
2018-05-04T06:06:56.584Z,2.70
2018-05-04T06:09:59.849Z,2.50
2018-05-04T06:13:03.219Z,2.70
2018-05-04T06:16:06.298Z,3.20
2018-05-04T06:19:10.630Z,3.00
2018-05-04T06:22:14.029Z,2.97
2018-05-04T06:25:18.029Z,2.80
2018-05-04T06:28:21.279Z,2.90
2018-05-04T06:31:24.564Z,2.70
2018-05-04T06:34:27.915Z,2.73
2018-05-04T06:37:31.157Z,2.87
2018-05-04T06:40:34.521Z,2.43
2018-05-04T06:43:37.815Z,3.00
2018-05-04T06:46:42.118Z,2.50
2018-05-04T06:49:45.686Z,2.53
2018-05-04T06:52:49.097Z,3.13
2018-05-04T06:55:52.249Z,2.53
2018-05-04T06:58:55.567Z,2.63
2018-05-04T07:01:59.201Z,2.73
2018-05-04T07:05:02.951Z,2.90
2018-05-04T07:08:06.360Z,3.20
2018-05-04T07:11:09.847Z,2.63
2018-05-04T07:14:13.243Z,2.60
2018-05-04T07:17:16.976Z,2.90
2018-05-04T07:20:20.508Z,2.47
2018-05-04T07:23:23.885Z,2.80
2018-05-04T07:26:28.357Z,3.50
2018-05-04T07:29:31.580Z,3.23
2018-05-04T07:32:34.820Z,2.90
2018-05-04T07:35:38.805Z,3.20
2018-05-04T07:38:42.153Z,3.13
2018-05-04T07:41:46.167Z,2.93
2018-05-04T07:44:49.439Z,2.90
2018-05-04T07:47:52.820Z,2.90
2018-05-04T07:50:56.060Z,2.93
2018-05-04T07:53:59.407Z,3.23
2018-05-04T07:57:02.660Z,3.07
2018-05-04T08:00:05.931Z,3.10
2018-05-04T08:03:09.246Z,3.33
2018-05-04T08:06:12.459Z,3.03
2018-05-04T08:09:16.399Z,3.30
2018-05-04T08:12:19.790Z,2.67
2018-05-04T08:15:22.991Z,3.47
2018-05-04T08:18:26.301Z,3.50
2018-05-04T08:21:29.488Z,3.67
2018-05-04T08:24:32.876Z,3.60
2018-05-04T08:27:36.206Z,3.40
2018-05-04T08:30:39.546Z,3.50
2018-05-04T08:33:42.880Z,3.40
2018-05-04T08:36:46.100Z,3.83
2018-05-04T08:39:49.332Z,3.67
2018-05-04T08:42:52.718Z,3.47
2018-05-04T08:45:55.982Z,3.80
2018-05-04T08:48:59.329Z,3.70
2018-05-04T08:52:02.683Z,3.67
2018-05-04T08:55:06.064Z,3.30
2018-05-04T08:58:09.454Z,3.80
2018-05-04T09:01:12.688Z,3.67
2018-05-04T09:04:17.040Z,4.27
2018-05-04T09:07:20.396Z,3.83
2018-05-04T09:10:23.792Z,3.67
2018-05-04T09:13:26.976Z,4.00
2018-05-04T09:16:30.360Z,4.03
2018-05-04T09:19:33.577Z,4.00
2018-05-04T09:22:36.925Z,3.40
2018-05-04T09:25:40.183Z,3.67
2018-05-04T09:28:43.411Z,3.53
2018-05-04T09:31:47.771Z,4.17
2018-05-04T09:34:53.404Z,3.53
2018-05-04T09:37:56.736Z,4.00
2018-05-04T09:41:00.215Z,4.00
2018-05-04T09:44:03.551Z,4.43
2018-05-04T09:50:16.087Z,3.60
2018-05-04T09:53:20.248Z,3.83
2018-05-04T09:56:23.725Z,4.00
2018-05-04T09:59:27.127Z,3.40
2018-05-04T10:02:30.464Z,3.73
2018-05-04T10:05:33.737Z,3.80
2018-05-04T10:08:36.895Z,4.03
2018-05-04T10:11:40.325Z,4.10
2018-05-04T10:14:43.710Z,4.30
2018-05-04T10:17:48.155Z,3.90
2018-05-04T10:20:51.524Z,3.80
2018-05-04T10:23:54.925Z,3.80
2018-05-04T10:26:58.215Z,4.07
2018-05-04T10:30:02.167Z,3.80
2018-05-04T10:33:05.675Z,3.50
2018-05-04T10:36:09.257Z,3.80
2018-05-04T10:39:13.181Z,4.07
2018-05-04T10:42:18.164Z,3.47
2018-05-04T10:45:21.726Z,3.60
2018-05-04T10:48:25.360Z,3.60
2018-05-04T10:51:29.233Z,4.10
2018-05-04T10:54:33.255Z,3.73
2018-05-04T10:57:36.782Z,3.93
2018-05-04T11:00:40.388Z,3.67
2018-05-04T11:03:44.371Z,3.93
2018-05-04T11:06:48.844Z,3.57
2018-05-04T11:09:52.402Z,3.53
2018-05-04T11:12:56.939Z,3.50
2018-05-04T11:16:00.560Z,4.30
2018-05-04T11:19:04.378Z,3.70
2018-05-04T11:22:08.438Z,3.47
2018-05-04T11:25:12.421Z,3.77
2018-05-04T11:28:16.493Z,3.60
2018-05-04T11:31:21.281Z,3.50
2018-05-04T11:34:24.663Z,3.53
2018-05-04T11:37:28.554Z,4.20
2018-05-04T11:40:32.172Z,3.67
2018-05-04T11:43:36.153Z,3.80
2018-05-04T11:46:39.891Z,3.40
2018-05-04T11:49:43.635Z,3.40
2018-05-04T11:52:48.190Z,3.63
2018-05-04T11:55:51.469Z,5.00
2018-05-04T11:58:54.841Z,3.90
2018-05-04T12:01:58.185Z,3.70
2018-05-04T12:05:01.468Z,3.50
2018-05-04T12:08:04.756Z,3.87
2018-05-04T12:11:08.053Z,3.67
2018-05-04T12:14:11.416Z,3.67
2018-05-04T12:17:14.747Z,3.30
2018-05-04T12:20:18.940Z,3.63
2018-05-04T12:23:22.183Z,4.00
2018-05-04T12:26:25.513Z,3.53
2018-05-04T12:29:28.814Z,3.90
2018-05-04T12:32:32.051Z,3.97
2018-05-04T12:35:36.427Z,3.70
2018-05-04T12:38:39.863Z,3.77
2018-05-04T12:41:43.079Z,3.67
2018-05-04T12:44:46.435Z,3.67
2018-05-04T12:47:49.607Z,4.00
2018-05-04T12:50:53.731Z,4.43
2018-05-04T12:53:56.959Z,4.23
2018-05-04T12:57:00.229Z,3.47
2018-05-04T13:00:03.669Z,3.40
2018-05-04T13:03:08.190Z,3.87
2018-05-04T13:06:11.559Z,3.80
2018-05-04T13:09:14.816Z,3.50
2018-05-04T13:12:17.987Z,4.13
2018-05-04T13:15:21.315Z,3.60
2018-05-04T13:18:24.493Z,3.90
2018-05-04T13:21:28.733Z,3.80
2018-05-04T13:24:32.086Z,3.67
2018-05-04T13:27:35.354Z,3.63
2018-05-04T13:30:38.845Z,3.50
2018-05-04T13:33:42.329Z,3.60
2018-05-04T13:36:45.647Z,3.97
2018-05-04T13:39:48.981Z,3.40
2018-05-04T13:42:52.357Z,3.70
2018-05-04T13:45:55.756Z,3.67
2018-05-04T13:48:58.984Z,3.83
2018-05-04T13:52:02.345Z,3.83
2018-05-04T13:55:05.570Z,3.67
2018-05-04T13:58:08.954Z,3.93
2018-05-04T14:01:13.422Z,3.90
2018-05-04T14:04:17.800Z,3.37
2018-05-04T14:07:21.118Z,3.63
2018-05-04T14:10:24.492Z,3.80
2018-05-04T14:13:27.676Z,3.73
2018-05-04T14:16:30.995Z,3.83
2018-05-04T14:19:34.276Z,3.70
2018-05-04T14:22:37.584Z,4.00
2018-05-04T14:25:40.877Z,3.67
2018-05-04T14:28:44.268Z,3.73
2018-05-04T14:31:48.284Z,3.67
2018-05-04T14:34:51.787Z,3.90
2018-05-04T14:37:54.886Z,4.27
2018-05-04T14:40:58.206Z,3.97
2018-05-04T14:44:01.472Z,4.10
2018-05-04T14:47:04.751Z,3.90
2018-05-04T14:50:08.015Z,3.60
2018-05-04T14:53:11.324Z,4.40
2018-05-04T14:56:15.051Z,4.13
2018-05-04T14:59:18.329Z,3.87
2018-05-04T15:02:21.540Z,4.17
2018-05-04T15:05:24.867Z,4.00
2018-05-04T15:08:28.208Z,3.50
2018-05-04T15:11:31.447Z,3.63
2018-05-04T15:14:34.829Z,3.50
2018-05-04T15:17:38.177Z,3.80
2018-05-04T15:20:41.948Z,3.47
2018-05-04T15:23:46.192Z,3.90
2018-05-04T15:26:49.661Z,4.00
2018-05-04T15:29:52.996Z,3.63
2018-05-04T15:32:56.300Z,4.00
2018-05-04T15:35:59.748Z,3.47
2018-05-04T15:39:03.148Z,4.30
2018-05-04T15:42:06.482Z,3.70
2018-05-04T15:45:09.890Z,3.67
2018-05-04T15:48:17.423Z,4.27
2018-05-04T15:52:24.663Z,4.20
2018-05-04T15:55:28.020Z,4.17
2018-05-04T15:58:31.386Z,4.20
2018-05-04T16:01:34.728Z,4.23
2018-05-04T16:04:38.046Z,4.47
2018-05-04T16:07:41.268Z,3.67
2018-05-04T16:10:44.504Z,4.17
2018-05-04T16:13:49.428Z,4.03
2018-05-04T16:16:52.811Z,3.73
2018-05-04T16:19:56.055Z,3.90
2018-05-04T16:22:59.418Z,4.20
2018-05-04T16:26:02.759Z,4.00
2018-05-04T16:29:07.689Z,3.77
2018-05-04T16:32:10.912Z,4.10
2018-05-04T16:35:14.136Z,4.03
2018-05-04T16:38:17.434Z,4.07
2018-05-04T16:41:20.753Z,4.20
2018-05-04T16:44:24.064Z,4.27
2018-05-04T16:47:27.457Z,3.87
2018-05-04T16:50:30.883Z,4.40
2018-05-04T16:53:34.726Z,4.43
2018-05-04T16:56:38.145Z,4.33
2018-05-04T16:59:41.576Z,4.30
2018-05-04T17:02:44.926Z,4.20
2018-05-04T17:05:48.360Z,4.90
2018-05-04T17:08:51.801Z,4.17
2018-05-04T17:11:55.361Z,4.53
2018-05-04T17:14:58.685Z,4.70
2018-05-04T17:18:02.100Z,4.13
2018-05-04T17:21:05.303Z,4.30
2018-05-04T17:24:09.094Z,3.97
2018-05-04T17:27:12.447Z,4.20
2018-05-04T17:30:15.668Z,4.07
2018-05-04T17:33:19.020Z,4.07
2018-05-04T17:36:23.382Z,4.10
2018-05-04T17:39:26.765Z,4.00
2018-05-04T17:42:30.220Z,3.80
2018-05-04T17:45:33.571Z,4.47
2018-05-04T17:48:36.951Z,3.80
2018-05-04T17:51:41.136Z,4.07
2018-05-04T17:54:44.459Z,4.13
2018-05-04T17:57:47.826Z,4.30
2018-05-04T18:00:51.157Z,3.97
2018-05-04T18:03:54.380Z,4.13
2018-05-04T18:06:57.547Z,3.90
2018-05-04T18:10:00.888Z,4.30
2018-05-04T18:13:04.248Z,3.97
2018-05-04T18:16:07.639Z,3.83
2018-05-04T18:19:10.903Z,4.10
2018-05-04T18:22:14.127Z,4.00
2018-05-04T18:25:17.506Z,4.50
2018-05-04T18:28:21.579Z,4.50
2018-05-04T18:31:24.842Z,4.70
2018-05-04T18:34:28.152Z,4.60
2018-05-04T18:37:31.548Z,4.70
2018-05-04T18:40:34.943Z,4.77
2018-05-04T18:43:38.299Z,4.00
2018-05-04T18:46:43.295Z,4.70
2018-05-04T18:49:46.700Z,4.10
2018-05-04T18:52:50.106Z,4.43
2018-05-04T18:55:53.454Z,4.43
2018-05-04T18:58:56.734Z,4.07
2018-05-04T19:01:59.990Z,3.90
2018-05-04T19:05:03.242Z,4.17
2018-05-04T19:08:06.586Z,4.07
2018-05-04T19:11:09.992Z,4.20
2018-05-04T19:14:14.141Z,4.27
2018-05-04T19:17:17.498Z,3.47
2018-05-04T19:20:20.863Z,3.77
2018-05-04T19:23:25.220Z,3.80
2018-05-04T19:26:28.594Z,3.80
2018-05-04T19:29:31.986Z,3.73
2018-05-04T19:32:35.279Z,3.80
2018-05-04T19:35:38.695Z,3.73
2018-05-04T19:38:42.045Z,3.70
2018-05-04T19:41:45.400Z,3.10
2018-05-04T19:44:48.875Z,3.60
2018-05-04T19:47:52.388Z,3.37
2018-05-04T19:50:55.663Z,3.53
2018-05-04T19:53:58.856Z,3.40
2018-05-04T19:57:02.222Z,3.70
2018-05-04T20:00:06.577Z,3.10
2018-05-04T20:03:09.950Z,3.77
2018-05-04T20:06:13.311Z,3.40
2018-05-04T20:09:16.505Z,3.23
2018-05-04T20:12:20.232Z,3.43
2018-05-04T20:15:23.589Z,3.37
2018-05-04T20:18:26.812Z,3.50
2018-05-04T20:21:30.083Z,3.50
2018-05-04T20:24:33.484Z,3.70
2018-05-04T20:27:36.804Z,3.30
2018-05-04T20:30:40.210Z,3.47
2018-05-04T20:33:43.549Z,3.83
2018-05-04T20:36:46.804Z,3.30
2018-05-04T20:39:52.604Z,3.37
2018-05-04T20:42:55.957Z,3.20
2018-05-04T20:45:59.368Z,3.70
2018-05-04T20:49:04.708Z,3.43
2018-05-04T20:52:07.983Z,3.20
2018-05-04T20:55:12.314Z,3.40
2018-05-04T20:58:15.567Z,3.13
2018-05-04T21:01:19.505Z,3.30
2018-05-04T21:04:22.930Z,4.00
2018-05-04T21:07:26.321Z,4.20
2018-05-04T21:10:29.648Z,3.30
2018-05-04T21:13:32.928Z,3.10
2018-05-04T21:16:36.324Z,3.30
2018-05-04T21:19:39.627Z,3.50
2018-05-04T21:22:42.920Z,2.90
2018-05-04T21:25:47.246Z,3.10
2018-05-04T21:28:51.591Z,2.87
2018-05-04T21:31:54.975Z,2.93
2018-05-04T21:34:58.271Z,2.93
2018-05-04T21:38:01.648Z,3.10
2018-05-04T21:41:04.993Z,3.37
2018-05-04T21:44:08.203Z,2.77
2018-05-04T21:47:11.469Z,2.90
2018-05-04T21:50:14.881Z,3.10
2018-05-04T21:53:18.243Z,2.90
2018-05-04T21:56:22.475Z,2.80
2018-05-04T21:59:25.785Z,3.10
2018-05-04T22:02:29.064Z,2.90
2018-05-04T22:05:32.404Z,2.77
2018-05-04T22:08:35.776Z,2.40
2018-05-04T22:11:39.078Z,2.77
2018-05-04T22:14:42.475Z,2.70
2018-05-04T22:17:45.757Z,3.00
2018-05-04T22:20:49.041Z,2.40
2018-05-04T22:23:52.659Z,2.80
2018-05-04T22:26:55.956Z,3.10
2018-05-04T22:30:00.272Z,2.67
2018-05-04T22:33:03.710Z,2.43
2018-05-04T22:36:07.102Z,2.53
2018-05-04T22:39:10.366Z,2.80
2018-05-04T22:42:13.767Z,3.10
2018-05-04T22:45:17.104Z,2.80
2018-05-04T22:48:20.999Z,2.90
2018-05-04T22:51:24.395Z,2.60
2018-05-04T22:54:27.593Z,2.57
2018-05-04T22:57:31.836Z,2.70
2018-05-04T23:00:35.222Z,2.70
2018-05-04T23:03:38.531Z,2.77
2018-05-04T23:06:41.696Z,3.20
2018-05-04T23:09:45.085Z,2.60
2018-05-04T23:12:48.324Z,2.27
2018-05-04T23:15:52.728Z,3.13
2018-05-04T23:18:56.010Z,2.77
2018-05-04T23:21:59.407Z,2.90
2018-05-04T23:25:02.747Z,2.80
2018-05-04T23:28:06.146Z,2.50
2018-05-04T23:31:09.495Z,2.60
2018-05-04T23:34:12.783Z,2.60
2018-05-04T23:37:16.187Z,2.60
2018-05-04T23:40:19.518Z,2.40
2018-05-04T23:43:23.031Z,2.30
2018-05-04T23:46:26.337Z,2.37
2018-05-04T23:49:29.699Z,2.63
2018-05-04T23:52:33.092Z,2.60
2018-05-04T23:55:36.512Z,2.67
2018-05-04T23:58:39.796Z,2.53
